Dades meteomassalio
Diari Summary for Setembre 26, 2017 Units:  Metric    English   Both
« Previous Day
Next Day »
Diari Semanal Mensual Anual Personalitzat
  Maxima: Minima: Mijana:
Temperatura: -17.8 °C -10.1 °C -7.4 °C
Rosada: -17.8 °C -12.7 °C -11.5 °C
Humitat: Humidity % 43 % 63 %
Velocitat del vent: 0 km/h 0 km/h 20.3 km/h
Racha vent: 0 km/h - -
Vent:- - South
Pressio: 0 hPa 34544 hPa -
Pluja: 0 mm    
Historical Graphs
 
 
Tabular Data for Setembre 26, 2017
Time Temperature Dew Point Pressure Wind Wind Speed Wind Gust Humidity Rainfall Rate (Hourly) solar Conditions
-17.8 °C -17.8 °C 0 hPa Calm     Humidity % 0 mm SolarRadiationWatts/m^2 W/m2 Conditions
00:04 -7.3 °C -11.8 °C 34611.7 hPa South 38.8 km/h 38.8 km/h 59 % 0 mm 0.0 W/m2 CLR
00:09 -7.3 °C -11.7 °C 34611.7 hPa SSW 41.7 km/h 41.7 km/h 60 % 0 mm 0.0 W/m2 CLR
00:14 -7.3 °C -11.7 °C 34611.7 hPa SSW 32.8 km/h 32.8 km/h 60 % 0 mm 0.0 W/m2 CLR
00:19 -7.3 °C -11.7 °C 34611.7 hPa SW 33.6 km/h 35.2 km/h 60 % 0 mm 0.0 W/m2 CLR
00:24 -7.3 °C -11.6 °C 34611.7 hPa SW 38.8 km/h 38.8 km/h 61 % 0 mm 0.0 W/m2 CLR
00:29 -7.6 °C -11.7 °C 34601.5 hPa SSW 47.6 km/h 47.6 km/h 62 % 0 mm 0.0 W/m2 CLR
00:34 -7.6 °C -11.7 °C 34611.7 hPa SW 44.7 km/h 44.7 km/h 62 % 0 mm 0.0 W/m2 CLR
00:39 -7.6 °C -11.6 °C 34611.7 hPa SSW 35.7 km/h 35.7 km/h 63 % 0 mm 0.0 W/m2 CLR
00:44 -7.6 °C -11.6 °C 34611.7 hPa SSW 36.2 km/h 36.2 km/h 63 % 0 mm 0.0 W/m2 CLR
00:49 -7.6 °C -11.6 °C 34611.7 hPa SSW 26.9 km/h 26.9 km/h 63 % 0 mm 0.0 W/m2 CLR
00:59 -7.9 °C -11.7 °C 34611.7 hPa SW 35.7 km/h 35.7 km/h 64 % 0 mm 0.0 W/m2 CLR
01:04 -7.9 °C -11.7 °C 34611.7 hPa SSW 35.7 km/h 35.7 km/h 64 % 0 mm 0.0 W/m2 CLR
01:09 -7.9 °C -11.7 °C 34611.7 hPa SSW 29.8 km/h 29.8 km/h 64 % 0 mm 0.0 W/m2 CLR
01:14 -7.9 °C -11.6 °C 34611.7 hPa SSW 35.7 km/h 35.7 km/h 65 % 0 mm 0.0 W/m2 CLR
01:19 -7.9 °C -11.6 °C 34611.7 hPa SW 32.8 km/h 32.8 km/h 65 % 0 mm 0.0 W/m2 CLR
01:24 -7.9 °C -11.5 °C 34611.7 hPa SSW 29.8 km/h 29.8 km/h 66 % 0 mm 0.0 W/m2 CLR
01:29 -7.9 °C -11.5 °C 34611.7 hPa SW 38.8 km/h 38.8 km/h 66 % 0 mm 0.0 W/m2 CLR
01:34 -7.9 °C -11.5 °C 34611.7 hPa SSW 50.7 km/h 50.7 km/h 66 % 0 mm 0.0 W/m2 CLR
01:39 -8.2 °C -11.8 °C 34611.7 hPa SSW 47.6 km/h 47.6 km/h 66 % 0 mm 0.0 W/m2 CLR
01:44 -8.2 °C -11.8 °C 34625.2 hPa SW 26.9 km/h 26.9 km/h 66 % 0 mm 0.0 W/m2 CLR
01:49 -8.2 °C -11.6 °C 34625.2 hPa SSW 32.8 km/h 32.8 km/h 67 % 0 mm 0.0 W/m2 CLR
01:54 -8.2 °C -11.5 °C 34625.2 hPa SW 36.2 km/h 36.2 km/h 68 % 0 mm 0.0 W/m2 CLR
01:59 -8.2 °C -11.5 °C 34611.7 hPa SSW 41.7 km/h 41.7 km/h 68 % 0 mm 0.0 W/m2 CLR
02:04 -8.2 °C -11.5 °C 34625.2 hPa SSW 32.8 km/h 32.8 km/h 68 % 0 mm 0.0 W/m2 CLR
02:09 -8.2 °C -11.5 °C 34625.2 hPa SW 32.8 km/h 32.8 km/h 68 % 0 mm 0.0 W/m2 CLR
02:14 -8.2 °C -11.4 °C 34625.2 hPa SSW 31.1 km/h 31.1 km/h 69 % 0 mm 0.0 W/m2 CLR
02:19 -8.2 °C -11.4 °C 34625.2 hPa SSW 36.2 km/h 36.2 km/h 69 % 0 mm 0.0 W/m2 CLR
02:24 -8.5 °C -11.7 °C 34625.2 hPa South 28.5 km/h 28.5 km/h 69 % 0 mm 0.0 W/m2 CLR
02:29 -8.5 °C -11.7 °C 34611.7 hPa South 31.1 km/h 31.1 km/h 69 % 0 mm 0.0 W/m2 CLR
02:34 -8.5 °C -11.7 °C 34625.2 hPa SSW 26.9 km/h 26.9 km/h 69 % 0 mm 0.0 W/m2 CLR
02:39 -8.5 °C -11.7 °C 34625.2 hPa South 26.9 km/h 26.9 km/h 69 % 0 mm 0.0 W/m2 CLR
02:44 -8.5 °C -11.6 °C 34625.2 hPa South 29.8 km/h 29.8 km/h 70 % 0 mm 0.0 W/m2 CLR
02:49 -8.8 °C -11.9 °C 34625.2 hPa SSW 26.9 km/h 26.9 km/h 70 % 0 mm 0.0 W/m2 CLR
02:54 -8.8 °C -11.9 °C 34611.7 hPa SSW 26.9 km/h 26.9 km/h 70 % 0 mm 0.0 W/m2 CLR
02:59 -8.8 °C -11.9 °C 34611.7 hPa SSW 29.8 km/h 29.8 km/h 70 % 0 mm 0.0 W/m2 CLR
03:04 -8.5 °C -11.6 °C 34611.7 hPa SSW 25.9 km/h 25.9 km/h 70 % 0 mm 0.0 W/m2 CLR
03:14 -8.5 °C -11.6 °C 34611.7 hPa SSW 32.8 km/h 32.8 km/h 70 % 0 mm 0.0 W/m2 CLR
03:19 -8.8 °C -11.9 °C 34611.7 hPa SSW 29.8 km/h 29.8 km/h 70 % 0 mm 0.0 W/m2 CLR
03:24 -8.8 °C -11.9 °C 34611.7 hPa SSW 23.8 km/h 23.8 km/h 70 % 0 mm 0.0 W/m2 CLR
03:29 -8.8 °C -11.9 °C 34611.7 hPa SSE 35.7 km/h 35.7 km/h 70 % 0 mm 0.0 W/m2 CLR
03:34 -8.8 °C -11.9 °C 34611.7 hPa South 23.8 km/h 23.8 km/h 70 % 0 mm 0.0 W/m2 CLR
03:39 -8.8 °C -11.9 °C 34611.7 hPa SSW 9 km/h 9 km/h 70 % 0 mm 0.0 W/m2 CLR
03:44 -8.8 °C -11.9 °C 34611.7 hPa South 29.8 km/h 29.8 km/h 70 % 0 mm 0.0 W/m2 CLR
03:49 -8.8 °C -11.9 °C 34611.7 hPa SSW 36.2 km/h 36.2 km/h 70 % 0 mm 0.0 W/m2 CLR
03:54 -8.8 °C -11.9 °C 34611.7 hPa SSW 38.8 km/h 38.8 km/h 70 % 0 mm 0.0 W/m2 CLR
03:59 -8.8 °C -11.9 °C 34611.7 hPa SSW 29.8 km/h 29.8 km/h 70 % 0 mm 0.0 W/m2 CLR
04:04 -8.8 °C -11.9 °C 34611.7 hPa South 29.8 km/h 29.8 km/h 70 % 0 mm 0.0 W/m2 CLR
04:09 -9.1 °C -12.2 °C 34611.7 hPa SSW 29.8 km/h 29.8 km/h 70 % 0 mm 0.0 W/m2 CLR
04:14 -8.8 °C -11.9 °C 34611.7 hPa SSE 17.9 km/h 17.9 km/h 70 % 0 mm 0.0 W/m2 CLR
04:19 -8.8 °C -11.9 °C 34611.7 hPa SSE 3.1 km/h   70 % 0 mm 0.0 W/m2 CLR
04:24 -8.8 °C -11.9 °C 34611.7 hPa SSW 23.8 km/h 23.8 km/h 70 % 0 mm 0.0 W/m2 CLR
04:29 -8.8 °C -11.9 °C 34611.7 hPa SSE 17.9 km/h 17.9 km/h 70 % 0 mm 0.0 W/m2 CLR
04:34 -8.8 °C -11.9 °C 34611.7 hPa SSE 23.8 km/h 23.8 km/h 70 % 0 mm 0.0 W/m2 CLR
04:39 -8.8 °C -11.9 °C 34611.7 hPa SSE 26.9 km/h 26.9 km/h 70 % 0 mm 0.0 W/m2 CLR
04:44 -8.8 °C -11.9 °C 34625.2 hPa Calm   0.3 km/h 70 % 0 mm 0.0 W/m2 CLR
04:49 -8.8 °C -11.9 °C 34625.2 hPa Calm     70 % 0 mm 0.0 W/m2 CLR
04:54 -8.8 °C -11.9 °C 34625.2 hPa Calm     70 % 0 mm 0.0 W/m2 CLR
04:59 -8.8 °C -11.9 °C 34611.7 hPa Calm     70 % 0 mm 0.0 W/m2 CLR
05:04 -8.8 °C -11.9 °C 34611.7 hPa SSE 7.7 km/h   70 % 0 mm 0.0 W/m2 CLR
05:09 -8.8 °C -11.9 °C 34625.2 hPa South 9 km/h 9 km/h 70 % 0 mm 0.0 W/m2 CLR
05:16 -8.8 °C -11.9 °C 34625.2 hPa SSE 26.9 km/h 26.9 km/h 70 % 0 mm 0.0 W/m2 CLR
05:21 -8.8 °C -11.9 °C 34625.2 hPa SSW 17.9 km/h 17.9 km/h 70 % 0 mm 0.0 W/m2 CLR
05:24 -8.8 °C -11.9 °C 34611.7 hPa South 17.9 km/h 17.9 km/h 70 % 0 mm 0.0 W/m2 CLR
05:26 -8.8 °C -11.9 °C 34611.7 hPa SSW 25.9 km/h 25.9 km/h 70 % 0 mm 0.0 W/m2 CLR
05:27 -8.8 °C -11.9 °C 34611.7 hPa SSW 23.8 km/h 23.8 km/h 70 % 0 mm 0.0 W/m2 CLR
05:28 -8.8 °C -11.9 °C 34611.7 hPa South 26.9 km/h 26.9 km/h 70 % 0 mm 0.0 W/m2 CLR
05:33 -8.8 °C -11.9 °C 34611.7 hPa South 29.8 km/h 29.8 km/h 70 % 0 mm 0.0 W/m2 CLR
05:38 -8.8 °C -11.9 °C 34611.7 hPa SSW 26.9 km/h 26.9 km/h 70 % 0 mm 0.0 W/m2 CLR
05:43 -8.8 °C -11.9 °C 34625.2 hPa SSE 26.9 km/h 26.9 km/h 70 % 0 mm 0.0 W/m2 CLR
05:48 -8.8 °C -11.9 °C 34625.2 hPa South 15 km/h 15 km/h 70 % 0 mm 0.0 W/m2 CLR
05:53 -8.8 °C -11.9 °C 34625.2 hPa SSW 11.9 km/h 11.9 km/h 70 % 0 mm 0.0 W/m2 CLR
05:58 -8.8 °C -11.9 °C 34611.7 hPa SSW 26.9 km/h 26.9 km/h 70 % 0 mm 0.0 W/m2 CLR
06:03 -8.8 °C -11.9 °C 34611.7 hPa SSW 23.8 km/h 23.8 km/h 70 % 0 mm 0.0 W/m2 CLR
06:08 -8.5 °C -11.6 °C 34625.2 hPa South 29.8 km/h 29.8 km/h 70 % 0 mm 0.0 W/m2 CLR
06:13 -8.8 °C -11.9 °C 34625.2 hPa South 7.7 km/h 7.7 km/h 70 % 0 mm 0.0 W/m2 CLR
06:18 -8.5 °C -11.6 °C 34625.2 hPa SSE 11.9 km/h 11.9 km/h 70 % 0 mm 0.0 W/m2 CLR
06:23 -8.5 °C -11.6 °C 34625.2 hPa SSW 17.9 km/h 17.9 km/h 70 % 0 mm 0.0 W/m2 CLR
06:28 -8.8 °C -11.9 °C 34625.2 hPa South 17.9 km/h 17.9 km/h 70 % 0 mm 0.0 W/m2 CLR
06:33 -8.8 °C -11.9 °C 34625.2 hPa South 20.9 km/h 20.9 km/h 70 % 0 mm 0.0 W/m2 CLR
06:38 -8.8 °C -11.8 °C 34625.2 hPa Calm   4.2 km/h 71 % 0 mm 0.0 W/m2 CLR
06:43 -8.8 °C -11.8 °C 34625.2 hPa SSW 28.5 km/h 28.5 km/h 71 % 0 mm 0.0 W/m2 CLR
06:48 -8.8 °C -11.8 °C 34625.2 hPa SSW 17.9 km/h 17.9 km/h 71 % 0 mm 0.0 W/m2 CLR
06:53 -8.8 °C -11.8 °C 34625.2 hPa South 29.8 km/h 29.8 km/h 71 % 0 mm 0.0 W/m2 CLR
06:58 -8.8 °C -11.8 °C 34625.2 hPa South 26.9 km/h 26.9 km/h 71 % 0 mm 0.0 W/m2 CLR
07:03 -8.8 °C -11.8 °C 34625.2 hPa South 26.9 km/h 26.9 km/h 71 % 0 mm 0.0 W/m2 CLR
07:06 -8.8 °C -11.8 °C 34625.2 hPa SSW 29.8 km/h 29.8 km/h 71 % 0 mm 0.0 W/m2 CLR
07:11 -8.8 °C -11.8 °C 34625.2 hPa SSW 20.9 km/h 20.9 km/h 71 % 0 mm 0.0 W/m2 CLR
07:16 -8.8 °C -11.8 °C 34625.2 hPa South 20.9 km/h 20.9 km/h 71 % 0 mm 0.0 W/m2 CLR
07:26 -8.8 °C -11.8 °C 34625.2 hPa South 15 km/h 15 km/h 71 % 0 mm 0.0 W/m2 CLR
07:31 -8.8 °C -11.6 °C 34625.2 hPa Calm     72 % 0 mm 0.0 W/m2 CLR
07:36 -8.8 °C -11.6 °C 34625.2 hPa SSE 15.6 km/h 15.6 km/h 72 % 0 mm 0.0 W/m2 CLR
07:41 -8.8 °C -11.6 °C 34625.2 hPa SSW 18.2 km/h 18.2 km/h 72 % 0 mm 0.0 W/m2 OVC
07:46 -8.8 °C -11.8 °C 34625.2 hPa South 20.9 km/h 20.9 km/h 71 % 0 mm 0.0 W/m2 OVC
07:51 -8.8 °C -11.8 °C 34625.2 hPa SSW 29.8 km/h 29.8 km/h 71 % 0 mm 5.0 W/m2 OVC
07:56 -8.8 °C -11.8 °C 34625.2 hPa SSW 23.3 km/h 23.3 km/h 71 % 0 mm 7.0 W/m2 BKN
08:01 -8.8 °C -11.8 °C 34635.4 hPa South 29.8 km/h 29.8 km/h 71 % 0 mm 11.0 W/m2 BKN
08:06 -8.8 °C -11.8 °C 34635.4 hPa SSW 29.8 km/h 29.8 km/h 71 % 0 mm 14.0 W/m2 BKN
08:16 -8.8 °C -11.8 °C 34635.4 hPa SW 29.8 km/h 29.8 km/h 71 % 0 mm 25.0 W/m2 BKN
08:21 -8.8 °C -11.8 °C 34635.4 hPa South 12.9 km/h 12.9 km/h 71 % 0 mm 26.0 W/m2 BKN
08:26 -8.8 °C -11.8 °C 34635.4 hPa SSW 26.9 km/h 26.9 km/h 71 % 0 mm 30.0 W/m2 BKN
08:31 -8.8 °C -11.8 °C 34635.4 hPa SSW 47.6 km/h 47.6 km/h 71 % 0 mm 25.0 W/m2 BKN
08:36 -8.5 °C -11.4 °C 34645.6 hPa SSW 6 km/h 6 km/h 71 % 0 mm 26.0 W/m2 BKN
08:41 -8.5 °C -11.4 °C 34645.6 hPa South 26.9 km/h 26.9 km/h 71 % 0 mm 42.0 W/m2 BKN
08:46 -8.5 °C -11.4 °C 34645.6 hPa SSW 23.8 km/h 23.8 km/h 71 % 0 mm 49.0 W/m2 SCT
08:51 -8.5 °C -11.4 °C 34635.4 hPa SSW 35.7 km/h 35.7 km/h 71 % 0 mm 54.0 W/m2 SCT
08:56 -8.5 °C -11.6 °C 34635.4 hPa SSW 32.8 km/h 32.8 km/h 70 % 0 mm 56.0 W/m2 SCT
09:01 -8.5 °C -11.4 °C 34645.6 hPa SW 23.8 km/h 23.8 km/h 71 % 0 mm 62.0 W/m2 SCT
09:06 -8.5 °C -11.6 °C 34645.6 hPa South 31.1 km/h 31.1 km/h 70 % 0 mm 63.0 W/m2 SCT
09:11 -8.5 °C -11.6 °C 34645.6 hPa SSW 38.8 km/h 38.8 km/h 70 % 0 mm 62.0 W/m2 SCT
09:16 -8.5 °C -11.6 °C 34645.6 hPa South 31.1 km/h 31.1 km/h 70 % 0 mm 72.0 W/m2 SCT
09:21 -8.5 °C -11.6 °C 34635.4 hPa SSW 38.8 km/h 38.8 km/h 70 % 0 mm 95.0 W/m2 FEW
09:26 -8.2 °C -11.3 °C 34645.6 hPa SSW 29.8 km/h 29.8 km/h 70 % 0 mm 102.0 W/m2 CLR
09:31 -8.2 °C -11.3 °C 34645.6 hPa SW 31.1 km/h 31.1 km/h 70 % 0 mm 93.0 W/m2 CLR
09:36 -8.2 °C -11.3 °C 34645.6 hPa SSW 35.7 km/h 35.7 km/h 70 % 0 mm 104.0 W/m2 CLR
09:41 -8.2 °C -11.3 °C 34645.6 hPa SW 41.7 km/h 41.7 km/h 70 % 0 mm 113.0 W/m2 CLR
09:46 -8.2 °C -11.3 °C 34645.6 hPa SW 32.8 km/h 32.8 km/h 70 % 0 mm 109.0 W/m2 CLR
09:51 -8.2 °C -11.3 °C 34645.6 hPa SW 32.8 km/h 32.8 km/h 70 % 0 mm 107.0 W/m2 CLR
09:56 -8.2 °C -11.3 °C 34645.6 hPa SW 35.7 km/h 35.7 km/h 70 % 0 mm 114.0 W/m2 CLR
10:01 -8.2 °C -11.3 °C 34645.6 hPa SW 25.9 km/h 25.9 km/h 70 % 0 mm 134.0 W/m2 CLR
10:06 -8.2 °C -11.3 °C 34645.6 hPa WSW 41.4 km/h 41.4 km/h 70 % 0 mm 142.0 W/m2 CLR
10:10 -8.2 °C -11.4 °C 34645.6 hPa SSW 47.6 km/h 47.6 km/h 69 % 0 mm 151.0 W/m2 CLR
10:15 -8.2 °C -11.4 °C 34645.6 hPa South 38.8 km/h 38.8 km/h 69 % 0 mm 158.0 W/m2 CLR
10:20 -7.9 °C -11.1 °C 34645.6 hPa South 29.8 km/h 29.8 km/h 69 % 0 mm 135.0 W/m2 CLR
10:25 -8.2 °C -11.4 °C 34645.6 hPa SSW 32.8 km/h 32.8 km/h 69 % 0 mm 200.0 W/m2 CLR
10:30 -7.9 °C -11.1 °C 34645.6 hPa SSW 29.8 km/h 29.8 km/h 69 % 0 mm 244.0 W/m2 CLR
10:35 -7.9 °C -11.1 °C 34645.6 hPa SSW 31.1 km/h 31.1 km/h 69 % 0 mm 241.0 W/m2 CLR
10:40 -7.9 °C -11.2 °C 34645.6 hPa SSW 31.1 km/h 31.1 km/h 68 % 0 mm 236.0 W/m2 CLR
10:45 -7.9 °C -11.2 °C 34645.6 hPa SSW 41.7 km/h 41.7 km/h 68 % 0 mm 243.0 W/m2 CLR
10:50 -7.6 °C -10.9 °C 34645.6 hPa SSW 35.7 km/h 35.7 km/h 68 % 0 mm 267.0 W/m2 CLR
10:55 -7.6 °C -11.1 °C 34645.6 hPa SSW 32.8 km/h 32.8 km/h 67 % 0 mm 287.0 W/m2 CLR
11:00 -7.6 °C -10.9 °C 34645.6 hPa SSW 26.9 km/h 26.9 km/h 68 % 0 mm 332.0 W/m2 CLR
11:05 -7.6 °C -11.1 °C 34645.6 hPa SSE 17.9 km/h 17.9 km/h 67 % 0 mm 422.0 W/m2 CLR
11:10 -7.6 °C -11.3 °C 34645.6 hPa SW 38.8 km/h 38.8 km/h 65 % 0 mm 418.0 W/m2 CLR
11:15 -7.6 °C -11.3 °C 34645.6 hPa SSW 36.2 km/h 36.2 km/h 65 % 0 mm 489.0 W/m2 CLR
11:20 -7.6 °C -11.2 °C 34645.6 hPa South 35.7 km/h 35.7 km/h 66 % 0 mm 364.0 W/m2 CLR
11:25 -7.3 °C -10.9 °C 34645.6 hPa SSW 25.9 km/h 25.9 km/h 66 % 0 mm 503.0 W/m2 CLR
11:30 -7.3 °C -11 °C 34645.6 hPa SSW 29.8 km/h 29.8 km/h 65 % 0 mm 387.0 W/m2 CLR
11:35 -7.3 °C -11.2 °C 34645.6 hPa SW 29.8 km/h 29.8 km/h 64 % 0 mm 424.0 W/m2 CLR
11:45 -7.3 °C -11 °C 34645.6 hPa SW 29.8 km/h 29.8 km/h 65 % 0 mm 387.0 W/m2 CLR
11:50 -7 °C -10.9 °C 34645.6 hPa WSW 38.8 km/h 38.8 km/h 64 % 0 mm 346.0 W/m2 CLR
11:55 -7 °C -10.9 °C 34645.6 hPa SSW 35.7 km/h 35.7 km/h 64 % 0 mm 329.0 W/m2 CLR
12:00 -7 °C -10.9 °C 34645.6 hPa SW 32.8 km/h 32.8 km/h 64 % 0 mm 323.0 W/m2 CLR
12:05 -7 °C -10.7 °C 34645.6 hPa WSW 36.2 km/h 36.2 km/h 65 % 0 mm 418.0 W/m2 CLR
12:10 -7.3 °C -11 °C 34645.6 hPa SW 26.9 km/h 26.9 km/h 65 % 0 mm 272.0 W/m2 CLR
12:15 -7.3 °C -11.2 °C 34645.6 hPa SW 35.7 km/h 35.7 km/h 64 % 0 mm 304.0 W/m2 CLR
12:20 -7 °C -11 °C 34645.6 hPa SSW 33.6 km/h 33.6 km/h 63 % 0 mm 619.0 W/m2 CLR
12:25 -7 °C -10.9 °C 34645.6 hPa South 23.3 km/h 23.3 km/h 64 % 0 mm 367.0 W/m2 CLR
12:30 -7 °C -11 °C 34635.4 hPa SSW 38.8 km/h 38.8 km/h 63 % 0 mm 798.0 W/m2 CLR
12:35 -6.3 °C -10.6 °C 34635.4 hPa SSW 31.1 km/h 31.1 km/h 62 % 0 mm 800.0 W/m2 CLR
12:45 -6.1 °C -10.5 °C 34635.4 hPa SSE 15 km/h 15 km/h 60 % 0 mm 466.0 W/m2 CLR
12:50 -6.1 °C -10.4 °C 34635.4 hPa South 15 km/h 15 km/h 61 % 0 mm 898.0 W/m2 CLR
12:55 -6.1 °C -10.8 °C 34635.4 hPa SW 35.7 km/h 35.7 km/h 58 % 0 mm 271.0 W/m2 CLR
13:00 -6.1 °C -10.5 °C 34625.2 hPa Calm     60 % 0 mm 877.0 W/m2 CLR
13:05 -6.3 °C -10.9 °C 34625.2 hPa South 35.7 km/h 35.7 km/h 59 % 0 mm 816.0 W/m2 CLR
13:10 -6.1 °C -10.7 °C 34625.2 hPa SW 29.8 km/h 29.8 km/h 59 % 0 mm 772.0 W/m2 CLR
13:15 -5.7 °C -10.5 °C 34625.2 hPa SSW 25.9 km/h 25.9 km/h 58 % 0 mm 918.0 W/m2 CLR
13:20 -5.4 °C -10.6 °C 34611.7 hPa SW 32.8 km/h 32.8 km/h 56 % 0 mm 933.0 W/m2 CLR
13:25 -5.1 °C -10.2 °C 34611.7 hPa South 20.9 km/h 20.9 km/h 56 % 0 mm 893.0 W/m2 CLR
13:30 -5.4 °C -10.4 °C 34611.7 hPa SW 20.9 km/h 20.9 km/h 57 % 0 mm 909.0 W/m2 CLR
13:35 -5.4 °C -10.6 °C 34611.7 hPa SW 23.8 km/h 23.8 km/h 56 % 0 mm 886.0 W/m2 CLR
13:40 -5.4 °C -10.6 °C 34611.7 hPa SSW 17.9 km/h 17.9 km/h 56 % 0 mm 874.0 W/m2 CLR
13:50 -5.4 °C -10.6 °C 34601.5 hPa SW 9 km/h 9 km/h 56 % 0 mm 232.0 W/m2 CLR
13:55 -6.1 °C -11.3 °C 34601.5 hPa South 11.9 km/h 11.9 km/h 55 % 0 mm 765.0 W/m2 CLR
14:00 -5.4 °C -10.7 °C 34591.4 hPa SW 29.8 km/h 29.8 km/h 55 % 0 mm 751.0 W/m2 CLR
14:05 -5.1 °C -10.6 °C 34591.4 hPa SW 9 km/h 9 km/h 54 % 0 mm 744.0 W/m2 CLR
14:10 -5.1 °C -10.6 °C 34591.4 hPa WSW 9 km/h 9 km/h 54 % 0 mm 752.0 W/m2 CLR
14:16 -5.1 °C -10.7 °C 34591.4 hPa WSW 20.9 km/h 20.9 km/h 53 % 0 mm 740.0 W/m2 CLR
14:21 -4.8 °C -10.4 °C 34591.4 hPa West 15.6 km/h 15.6 km/h 53 % 0 mm 737.0 W/m2 CLR
14:26 -5.1 °C -10.7 °C 34591.4 hPa Calm     53 % 0 mm 733.0 W/m2 CLR
14:31 -5.1 °C -11.1 °C 34591.4 hPa SW 23.8 km/h 23.8 km/h 51 % 0 mm 742.0 W/m2 CLR
14:36 -4.8 °C -10.9 °C 34591.4 hPa ESE 11.9 km/h 11.9 km/h 50 % 0 mm 744.0 W/m2 CLR
14:41 -4.5 °C -10.5 °C 34591.4 hPa SW 20.9 km/h 20.9 km/h 51 % 0 mm 758.0 W/m2 CLR
14:46 -4.2 °C -10.4 °C 34591.4 hPa Calm     50 % 0 mm 805.0 W/m2 CLR
14:50 -4.2 °C -10.2 °C 34591.4 hPa WNW 9 km/h   51 % 0 mm 784.0 W/m2 CLR
14:56 -4.8 °C -11.1 °C 34591.4 hPa South 18.2 km/h 18.2 km/h 49 % 0 mm 737.0 W/m2 CLR
14:57 -4.8 °C -11.1 °C 34591.4 hPa SSW 17.9 km/h 17.9 km/h 49 % 0 mm 726.0 W/m2 CLR
15:02 -4.8 °C -10.9 °C 34577.8 hPa SE 12.9 km/h 12.9 km/h 50 % 0 mm 728.0 W/m2 CLR
15:07 -4.5 °C -11 °C 34577.8 hPa SE 15 km/h 15 km/h 48 % 0 mm 705.0 W/m2 CLR
15:12 -4.5 °C -10.8 °C 34577.8 hPa East 15 km/h 15 km/h 49 % 0 mm 701.0 W/m2 CLR
15:17 -4.5 °C -11 °C 34577.8 hPa Calm     48 % 0 mm 684.0 W/m2 CLR
15:22 -4.5 °C -11 °C 34577.8 hPa SW 26.9 km/h 26.9 km/h 48 % 0 mm 687.0 W/m2 CLR
15:27 -4.5 °C -11.2 °C 34577.8 hPa SW 23.8 km/h 23.8 km/h 47 % 0 mm 675.0 W/m2 CLR
15:32 -4.5 °C -11 °C 34577.8 hPa Calm     48 % 0 mm 682.0 W/m2 CLR
15:37 -4.5 °C -11 °C 34577.8 hPa Calm     48 % 0 mm 578.0 W/m2 CLR
15:42 -4.8 °C -11.3 °C 34567.7 hPa SSW 29.8 km/h 29.8 km/h 48 % 0 mm 640.0 W/m2 CLR
15:47 -4.5 °C -11.6 °C 34567.7 hPa SSW 20.9 km/h 20.9 km/h 45 % 0 mm 633.0 W/m2 CLR
15:52 -4.5 °C -11.3 °C 34567.7 hPa SSW 20.9 km/h 20.9 km/h 46 % 0 mm 629.0 W/m2 CLR
15:57 -4.5 °C -11.3 °C 34567.7 hPa ESE 9 km/h 9 km/h 46 % 0 mm 621.0 W/m2 CLR
16:02 -4.5 °C -11.6 °C 34567.7 hPa SW 12.9 km/h 12.9 km/h 45 % 0 mm 606.0 W/m2 CLR
16:07 -4.2 °C -11.3 °C 34567.7 hPa WSW 6 km/h 6 km/h 45 % 0 mm 594.0 W/m2 CLR
16:12 -4.2 °C -11.1 °C 34567.7 hPa Calm     46 % 0 mm 596.0 W/m2 CLR
16:17 -4.2 °C -11.3 °C 34567.7 hPa Calm     45 % 0 mm 575.0 W/m2 CLR
16:22 -4.2 °C -11.1 °C 34567.7 hPa NNW 15 km/h 15 km/h 46 % 0 mm 564.0 W/m2 CLR
16:27 -4.2 °C -11.3 °C 34554.1 hPa SSW 11.9 km/h 11.9 km/h 45 % 0 mm 550.0 W/m2 CLR
16:32 -4.2 °C -11.3 °C 34554.1 hPa SW 10.3 km/h 10.3 km/h 45 % 0 mm 538.0 W/m2 CLR
16:37 -4.5 °C -11.7 °C 34554.1 hPa Calm     44 % 0 mm 533.0 W/m2 CLR
16:42 -4.2 °C -11.4 °C 34554.1 hPa Calm     44 % 0 mm 499.0 W/m2 CLR
16:47 -4.2 °C -11.4 °C 34554.1 hPa WNW 6 km/h 6 km/h 44 % 0 mm 478.0 W/m2 CLR
16:57 -4.2 °C -11.3 °C 34554.1 hPa South 17.9 km/h 17.9 km/h 45 % 0 mm 329.0 W/m2 CLR
17:02 -4.5 °C -11.6 °C 34554.1 hPa West 6 km/h   45 % 0 mm 452.0 W/m2 CLR
17:07 -4.2 °C -11.3 °C 34554.1 hPa WSW 12.9 km/h 12.9 km/h 45 % 0 mm 441.0 W/m2 CLR
17:12 -4.5 °C -11.6 °C 34554.1 hPa SW 25.9 km/h 25.9 km/h 45 % 0 mm 436.0 W/m2 CLR
17:17 -4.5 °C -11.6 °C 34554.1 hPa SW 17.9 km/h 17.9 km/h 45 % 0 mm 422.0 W/m2 CLR
17:22 -4.5 °C -11.7 °C 34554.1 hPa SW 9 km/h 9 km/h 44 % 0 mm 399.0 W/m2 CLR
17:27 -4.5 °C -11.7 °C 34554.1 hPa WSW 9 km/h 9 km/h 44 % 0 mm 387.0 W/m2 CLR
17:28 -4.5 °C -11.7 °C 34544 hPa Calm     44 % 0 mm 383.0 W/m2 CLR
17:33 -4.5 °C -11.7 °C 34544 hPa West 15.6 km/h 15.6 km/h 44 % 0 mm 366.0 W/m2 CLR
17:38 -4.5 °C -11.9 °C 34544 hPa West 9 km/h 9 km/h 43 % 0 mm 353.0 W/m2 CLR
17:43 -4.8 °C -12 °C 34544 hPa WNW 9 km/h   44 % 0 mm 341.0 W/m2 CLR
17:48 -4.5 °C -11.7 °C 34544 hPa NNW 9 km/h 9 km/h 44 % 0 mm 315.0 W/m2 CLR
17:53 -4.8 °C -12 °C 34544 hPa Calm     44 % 0 mm 308.0 W/m2 CLR
17:58 -4.8 °C -12 °C 34554.1 hPa West 17.9 km/h 17.9 km/h 44 % 0 mm 292.0 W/m2 CLR
18:03 -4.8 °C -11.8 °C 34554.1 hPa NW 11.9 km/h 11.9 km/h 45 % 0 mm 274.0 W/m2 CLR
18:08 -4.8 °C -11.8 °C 34554.1 hPa Calm     45 % 0 mm 257.0 W/m2 CLR
18:13 -5.1 °C -11.9 °C 34554.1 hPa Calm     46 % 0 mm 241.0 W/m2 CLR
18:20 -5.1 °C -12.1 °C 34554.1 hPa Calm     45 % 0 mm 216.0 W/m2 CLR
18:25 -5.1 °C -12.1 °C 34554.1 hPa Calm     45 % 0 mm 199.0 W/m2 CLR
18:30 -5.1 °C -12.1 °C 34554.1 hPa NNW 6 km/h 6 km/h 45 % 0 mm 176.0 W/m2 CLR
18:35 -5.1 °C -12.1 °C 34554.1 hPa Calm     45 % 0 mm 160.0 W/m2 CLR
18:40 -5.4 °C -12.2 °C 34554.1 hPa Calm     46 % 0 mm 142.0 W/m2 CLR
18:45 -5.4 °C -12.2 °C 34554.1 hPa NW 3.1 km/h   46 % 0 mm 127.0 W/m2 CLR
18:50 -5.4 °C -12.2 °C 34554.1 hPa Calm     46 % 0 mm 111.0 W/m2 CLR
18:55 -5.4 °C -12.2 °C 34554.1 hPa Calm     46 % 0 mm 95.0 W/m2 CLR
19:00 -5.7 °C -12.7 °C 34554.1 hPa Calm     45 % 0 mm 79.0 W/m2 FEW
19:05 -5.7 °C -12.7 °C 34554.1 hPa Calm     45 % 0 mm 65.0 W/m2 SCT
19:10 -5.7 °C -12.4 °C 34554.1 hPa Calm     46 % 0 mm 49.0 W/m2 SCT
19:15 -6.1 °C -12.1 °C 34554.1 hPa NE 20.9 km/h 20.9 km/h 50 % 0 mm 39.0 W/m2 BKN
19:20 -6.1 °C -11.4 °C 34567.7 hPa East 26.9 km/h 26.9 km/h 54 % 0 mm 32.0 W/m2 BKN
19:25 -6.1 °C -11.1 °C 34567.7 hPa ENE 26.9 km/h 26.9 km/h 56 % 0 mm 26.0 W/m2 BKN
19:30 -6.3 °C -11.1 °C 34567.7 hPa East 23.8 km/h 23.8 km/h 58 % 0 mm 21.0 W/m2 BKN
19:35 -6.3 °C -11.1 °C 34567.7 hPa East 15 km/h 15 km/h 58 % 0 mm 16.0 W/m2 BKN
19:36 -6.3 °C -11.1 °C 34567.7 hPa ENE 15 km/h 15 km/h 58 % 0 mm 16.0 W/m2 BKN
19:41 -6.7 °C -11.3 °C 34567.7 hPa NE 20.9 km/h 20.9 km/h 59 % 0 mm 12.0 W/m2 BKN
19:46 -6.7 °C -11.1 °C 34577.8 hPa ENE 23.8 km/h 23.8 km/h 60 % 0 mm 9.0 W/m2 BKN
19:51 -6.7 °C -11 °C 34577.8 hPa ENE 11.9 km/h 11.9 km/h 61 % 0 mm 5.0 W/m2 OVC
19:56 -6.7 °C -10.8 °C 34577.8 hPa ENE 23.8 km/h 23.8 km/h 62 % 0 mm 0.0 W/m2 OVC
20:01 -7 °C -11.2 °C 34577.8 hPa ENE 11.9 km/h 11.9 km/h 62 % 0 mm 0.0 W/m2 CLR
20:06 -7.3 °C -11.3 °C 34577.8 hPa East 20.9 km/h 20.9 km/h 63 % 0 mm 0.0 W/m2 CLR
20:11 -7.3 °C -11.2 °C 34577.8 hPa ENE 23.8 km/h 23.8 km/h 64 % 0 mm 0.0 W/m2 CLR
20:16 -7.6 °C -11.3 °C 34577.8 hPa ENE 20.9 km/h 20.9 km/h 65 % 0 mm 0.0 W/m2 CLR
20:21 -7.6 °C -11.3 °C 34591.4 hPa ENE 12.9 km/h 12.9 km/h 65 % 0 mm 0.0 W/m2 CLR
20:26 -7.6 °C -11.2 °C 34591.4 hPa ENE 11.9 km/h 11.9 km/h 66 % 0 mm 0.0 W/m2 CLR
20:31 -7.6 °C -11.2 °C 34591.4 hPa ENE 17.9 km/h 17.9 km/h 66 % 0 mm 0.0 W/m2 CLR
20:36 -7.9 °C -11.3 °C 34591.4 hPa ENE 17.9 km/h 17.9 km/h 67 % 0 mm 0.0 W/m2 CLR
20:41 -7.9 °C -11.3 °C 34591.4 hPa ENE 11.9 km/h 11.9 km/h 67 % 0 mm 0.0 W/m2 CLR
20:46 -7.9 °C -11.3 °C 34591.4 hPa ENE 12.9 km/h 12.9 km/h 67 % 0 mm 0.0 W/m2 CLR
20:51 -8.2 °C -11.6 °C 34601.5 hPa ENE 10.3 km/h 10.3 km/h 67 % 0 mm 0.0 W/m2 CLR
20:56 -8.2 °C -11.5 °C 34601.5 hPa East 23.8 km/h 23.8 km/h 68 % 0 mm 0.0 W/m2 CLR
21:01 -8.2 °C -11.5 °C 34601.5 hPa East 17.9 km/h 17.9 km/h 68 % 0 mm 0.0 W/m2 CLR
21:06 -8.2 °C -11.5 °C 34601.5 hPa East 17.9 km/h 17.9 km/h 68 % 0 mm 0.0 W/m2 CLR
21:11 -8.2 °C -11.5 °C 34601.5 hPa East 9 km/h 9 km/h 68 % 0 mm 0.0 W/m2 CLR
21:12 -8.2 °C -11.5 °C 34601.5 hPa East 9 km/h 9 km/h 68 % 0 mm 0.0 W/m2 CLR
21:17 -8.2 °C -11.5 °C 34601.5 hPa East 20.9 km/h 20.9 km/h 68 % 0 mm 0.0 W/m2 CLR
21:22 -8.2 °C -11.4 °C 34601.5 hPa ENE 23.8 km/h 23.8 km/h 69 % 0 mm 0.0 W/m2 CLR
21:27 -8.2 °C -11.4 °C 34611.7 hPa ENE 17.9 km/h 17.9 km/h 69 % 0 mm 0.0 W/m2 CLR
21:32 -8.2 °C -11.3 °C 34611.7 hPa ENE 23.8 km/h 23.8 km/h 70 % 0 mm 0.0 W/m2 CLR
21:42 -8.5 °C -11.4 °C 34611.7 hPa ENE 20.9 km/h 20.9 km/h 71 % 0 mm 0.0 W/m2 CLR
21:52 -8.5 °C -11.4 °C 34611.7 hPa East 20.9 km/h 20.9 km/h 71 % 0 mm 0.0 W/m2 CLR
21:57 -8.5 °C -11.4 °C 34611.7 hPa East 9 km/h 9 km/h 71 % 0 mm 0.0 W/m2 CLR
22:02 -8.8 °C -11.8 °C 34611.7 hPa ENE 9 km/h 9 km/h 71 % 0 mm 0.0 W/m2 CLR
22:07 -8.8 °C -11.8 °C 34611.7 hPa Calm     71 % 0 mm 0.0 W/m2 CLR
22:12 -8.8 °C -11.6 °C 34625.2 hPa ENE 20.9 km/h 20.9 km/h 72 % 0 mm 0.0 W/m2 CLR
22:17 -9.1 °C -11.9 °C 34625.2 hPa East 9 km/h 9 km/h 72 % 0 mm 0.0 W/m2 CLR
22:22 -9.1 °C -11.8 °C 34625.2 hPa ENE 15 km/h 15 km/h 73 % 0 mm 0.0 W/m2 CLR
22:27 -9.1 °C -11.8 °C 34625.2 hPa East 10.3 km/h 10.3 km/h 73 % 0 mm 0.0 W/m2 CLR
22:32 -9.4 °C -12.1 °C 34625.2 hPa East 3.1 km/h   73 % 0 mm 0.0 W/m2 CLR
22:37 -9.4 °C -12.1 °C 34625.2 hPa East 2.6 km/h 2.6 km/h 73 % 0 mm 0.0 W/m2 CLR
22:42 -9.1 °C -11.8 °C 34625.2 hPa ESE 7.7 km/h 7.7 km/h 73 % 0 mm 0.0 W/m2 CLR
22:47 -8.8 °C -11.5 °C 34625.2 hPa ESE 23.8 km/h 23.8 km/h 73 % 0 mm 0.0 W/m2 CLR
22:52 -8.8 °C -11.5 °C 34625.2 hPa Calm     73 % 0 mm 0.0 W/m2 CLR
22:57 -8.8 °C -11.5 °C 34625.2 hPa Calm     73 % 0 mm 0.0 W/m2 CLR
23:02 -9.1 °C -11.9 °C 34625.2 hPa Calm     72 % 0 mm 0.0 W/m2 CLR
23:07 -9.1 °C -11.7 °C 34625.2 hPa Calm     74 % 0 mm 0.0 W/m2 CLR
23:12 -9.4 °C -12 °C 34635.4 hPa Calm     74 % 0 mm 0.0 W/m2 CLR
23:17 -9.4 °C -11.9 °C 34635.4 hPa Calm     75 % 0 mm 0.0 W/m2 CLR
23:22 -9.4 °C -11.8 °C 34635.4 hPa Calm     76 % 0 mm 0.0 W/m2 CLR
23:27 -9.8 °C -12.2 °C 34635.4 hPa Calm     75 % 0 mm 0.0 W/m2 CLR
23:32 -9.8 °C -12.1 °C 34635.4 hPa Calm     76 % 0 mm 0.0 W/m2 CLR
23:37 -9.8 °C -12 °C 34635.4 hPa Calm     77 % 0 mm 0.0 W/m2 CLR
23:42 -9.8 °C -11.8 °C 34635.4 hPa Calm     78 % 0 mm 0.0 W/m2 CLR
23:46 -9.8 °C -11.8 °C 34635.4 hPa Calm     78 % 0 mm 0.0 W/m2 CLR
23:51 -9.8 °C -11.8 °C 34635.4 hPa Calm     78 % 0 mm 0.0 W/m2 CLR
23:56 -10.1 °C -12.2 °C 34645.6 hPa Calm     78 % 0 mm 0.0 W/m2 CLR
Lo Temps de Massalio
Compliments of Weather Underground - 1.25 mb